Warning: file_get_contents(/server/czul.ca/includes/../prompts/prompts.aboutus.json): failed to open stream: No such file or directory in /server/czul.ca/includes/prompts.inc.php on line 8

Warning: Invalid argument supplied for foreach() in /server/czul.ca/includes/prompts.inc.php on line 9

Warning: file_get_contents(/server/czul.ca/includes/../prompts/prompts.aboutus.json): failed to open stream: No such file or directory in /server/czul.ca/includes/prompts.inc.php on line 8

Warning: Invalid argument supplied for foreach() in /server/czul.ca/includes/prompts.inc.php on line 9

Warning: file_get_contents(/server/czul.ca/includes/../prompts/prompts.aboutus.json): failed to open stream: No such file or directory in /server/czul.ca/includes/prompts.inc.php on line 8

Warning: Invalid argument supplied for foreach() in /server/czul.ca/includes/prompts.inc.php on line 9
CZUL - FIR virtuelle de Montréal

CYGV

Havre St Pierre Airport

{{ICAO_CODE}} CYGV
{{IATA_CODE}} YGV
{{NAME}} Havre St Pierre Airport
{{LOCATION}} Havre St-Pierre, Quebec, CA
{{ELEVATION}} 125 {{FEET}} / 38.1 {{METERS}}
{{LATITUDE}} 50.28194444
{{LONGITUDE}} -63.61111111
{{METAR}} CYGV 170955Z AUTO 08016G26KT 5SM -RA BR OVC004 05/04 A2974 RMK SLP074
{{EXTRA_INFO}} {{DISPLAY_NOTAMS}}
{{DISPLAY_CHARTS}}
{{RUNWAY}} {{LENGTH}} {{WIDTH}} {{SURFACE}} {{ELEVATION}}
08 4498 ft 100 ft ASP 110 ft
26 4498 ft 100 ft ASP 125 ft